Time;durP1;ratioP1;P1;durP2;ratioP2;P2;SDS_P1;SDS_P2;PMS_P1;PMS_P2;Temp;Humidity;BMP_temperature;BMP_pressure;BME280_temperature;BME280_humidity;BME280_pressure;Samples;Min_cycle;Max_cycle;Signal;HPM_P1;HPM_P2
2023/08/28 00:00:31;;;;;;;5.20;4.22;;;;;;;12.58;100.00;101012.78;4970085;28;20029;-70
2023/08/28 00:02:56;;;;;;;6.10;4.38;;;;;;;12.59;100.00;101009.31;4968993;28;20243;-63
2023/08/28 00:05:21;;;;;;;5.20;4.28;;;;;;;12.59;100.00;101009.31;4970636;28;20072;-69
2023/08/28 00:07:47;;;;;;;4.40;4.00;;;;;;;12.58;100.00;101002.38;4969559;28;20038;-68
2023/08/28 00:10:12;;;;;;;3.92;3.63;;;;;;;12.56;100.00;101004.03;4970586;28;20061;-68
2023/08/28 00:12:40;;;;;;;4.25;3.85;;;;;;;12.52;100.00;101001.34;4969981;28;20049;-66
2023/08/28 00:15:07;;;;;;;4.53;4.00;;;;;;;12.45;100.00;100993.38;4970757;28;20552;-68
2023/08/28 00:17:32;;;;;;;4.18;3.88;;;;;;;12.45;100.00;101005.47;4969901;28;20391;-67
2023/08/28 00:19:58;;;;;;;5.35;4.40;;;;;;;12.44;100.00;101007.22;4970180;28;20031;-69
2023/08/28 00:22:23;;;;;;;4.00;3.65;;;;;;;12.45;100.00;100995.97;4968731;28;20030;-70
2023/08/28 00:24:48;;;;;;;6.95;3.85;;;;;;;12.46;100.00;100994.25;4969319;28;20050;-69
2023/08/28 00:27:14;;;;;;;4.25;3.88;;;;;;;12.45;100.00;100989.88;4969265;28;20031;-70
2023/08/28 00:29:39;;;;;;;4.55;4.15;;;;;;;12.44;100.00;100996.81;4969840;28;20467;-69
2023/08/28 00:32:05;;;;;;;4.55;3.60;;;;;;;12.41;100.00;100988.91;4972209;28;20382;-68
2023/08/28 00:34:30;;;;;;;5.43;3.80;;;;;;;12.41;100.00;100996.69;4987506;28;20026;-69
2023/08/28 00:36:55;;;;;;;4.05;3.45;;;;;;;12.39;100.00;100994.91;4988995;28;20030;-68
2023/08/28 00:39:20;;;;;;;5.18;4.18;;;;;;;12.36;100.00;100985.31;4977363;28;20066;-70
2023/08/28 00:41:46;;;;;;;4.75;4.25;;;;;;;12.32;100.00;100983.50;4980578;28;20118;-69
2023/08/28 00:44:11;;;;;;;4.55;3.80;;;;;;;12.30;100.00;100974.78;4991235;28;20085;-71
2023/08/28 00:46:36;;;;;;;4.28;3.95;;;;;;;12.28;100.00;100979.03;4991842;28;20041;-70
2023/08/28 00:49:02;;;;;;;4.40;3.97;;;;;;;12.28;100.00;100981.63;4991377;28;20521;-70
2023/08/28 00:51:28;;;;;;;6.13;3.63;;;;;;;12.25;100.00;100982.41;4992105;28;20122;-68
2023/08/28 00:53:54;;;;;;;4.20;3.80;;;;;;;12.22;100.00;100987.53;4990724;28;20097;-70
2023/08/28 00:56:19;;;;;;;4.15;3.75;;;;;;;12.18;100.00;100986.56;4986018;28;20042;-66
2023/08/28 00:58:44;;;;;;;5.78;4.45;;;;;;;12.15;100.00;100986.50;4971517;28;20035;-70
2023/08/28 01:01:10;;;;;;;5.15;4.40;;;;;;;12.12;100.00;100978.63;4972009;28;20031;-70
2023/08/28 01:03:35;;;;;;;4.97;4.47;;;;;;;12.09;100.00;100975.88;4983968;28;20490;-69
2023/08/28 01:06:17;;;;;;;5.72;4.57;;;;;;;12.06;100.00;100976.69;4982350;28;20030;-68
2023/08/28 01:08:54;;;;;;;4.85;4.43;;;;;;;12.04;100.00;100975.78;4985043;28;20415;-69
2023/08/28 01:11:48;;;;;;;4.78;4.35;;;;;;;12.03;100.00;100978.31;4985040;28;20042;-68
2023/08/28 01:14:24;;;;;;;7.13;5.20;;;;;;;12.00;100.00;100977.41;4972335;28;20130;-70
2023/08/28 01:16:52;;;;;;;5.07;4.55;;;;;;;11.99;100.00;100991.22;4971594;28;20030;-69
2023/08/28 01:19:31;;;;;;;4.95;4.55;;;;;;;11.97;100.00;100992.00;4980497;28;20085;-67
2023/08/28 01:22:08;;;;;;;5.50;5.00;;;;;;;11.94;100.00;100981.53;4990959;28;20026;-70
2023/08/28 01:24:36;;;;;;;5.72;4.85;;;;;;;11.93;100.00;100975.47;4960740;28;20109;-68
2023/08/28 01:27:01;;;;;;;6.30;5.65;;;;;;;11.95;100.00;100967.72;4972140;28;20067;-70
2023/08/28 01:29:27;;;;;;;10.23;5.30;;;;;;;11.95;100.00;100968.59;4972277;28;20084;-69
2023/08/28 01:31:53;;;;;;;8.70;5.85;;;;;;;11.95;100.00;100962.50;4975029;28;20538;-68
2023/08/28 01:34:18;;;;;;;6.90;5.28;;;;;;;11.94;100.00;100969.44;4975905;28;20121;-68
2023/08/28 01:36:53;;;;;;;6.63;6.00;;;;;;;11.93;100.00;100965.06;4983302;28;20058;-69
2023/08/28 01:39:27;;;;;;;6.60;5.53;;;;;;;11.91;100.00;100964.16;4984430;28;20036;-67
2023/08/28 01:41:54;;;;;;;6.90;6.22;;;;;;;11.91;100.00;100958.94;4972247;28;20129;-69
2023/08/28 01:44:22;;;;;;;7.72;6.65;;;;;;;11.90;100.00;100959.81;4971309;28;20027;-69
2023/08/28 01:46:47;;;;;;;8.18;5.43;;;;;;;11.89;100.00;100953.72;4971245;28;20467;-70
2023/08/28 01:49:12;;;;;;;8.80;6.28;;;;;;;11.88;100.00;100951.09;4970904;28;20041;-66
2023/08/28 01:51:38;;;;;;;7.90;6.50;;;;;;;11.87;100.00;100959.72;4975401;28;20065;-69
2023/08/28 01:54:03;;;;;;;6.93;6.32;;;;;;;11.87;100.00;100952.78;4971804;28;20031;-70
2023/08/28 01:56:28;;;;;;;9.00;7.15;;;;;;;11.87;100.00;100964.91;4971273;28;20037;-69
2023/08/28 01:58:55;;;;;;;7.75;6.93;;;;;;;11.87;100.00;100959.72;4971811;28;20051;-69
2023/08/28 02:01:25;;;;;;;7.68;6.60;;;;;;;11.85;100.00;100961.38;4971852;28;20037;-68
2023/08/28 02:03:51;;;;;;;8.38;6.82;;;;;;;11.86;100.00;100952.75;4971619;28;20030;-69
2023/08/28 02:06:17;;;;;;;10.18;6.93;;;;;;;11.84;100.00;100947.53;4971834;28;20023;-69
2023/08/28 02:08:43;;;;;;;7.80;7.00;;;;;;;11.84;100.00;100944.03;4990519;28;20034;-68
2023/08/28 02:11:09;;;;;;;9.95;7.15;;;;;;;11.82;100.00;100940.53;4989971;28;20037;-69
2023/08/28 02:13:34;;;;;;;7.05;6.45;;;;;;;11.78;100.00;100931.78;4990775;28;20030;-69
2023/08/28 02:16:00;;;;;;;7.43;6.72;;;;;;;11.75;100.00;100932.56;4990515;28;20541;-69
2023/08/28 02:18:26;;;;;;;7.72;7.07;;;;;;;11.70;100.00;100931.56;4990089;28;20045;-69
2023/08/28 02:20:52;;;;;;;8.30;6.95;;;;;;;11.68;100.00;100940.13;4989190;28;20651;-68
2023/08/28 02:23:17;;;;;;;7.95;7.15;;;;;;;11.62;100.00;100936.50;4989723;28;20026;-68
2023/08/28 02:25:43;;;;;;;8.18;7.22;;;;;;;11.60;100.00;100947.69;4990227;28;20034;-68
2023/08/28 02:28:09;;;;;;;8.60;7.30;;;;;;;11.59;100.00;100948.50;4990408;28;20058;-68
2023/08/28 02:30:34;;;;;;;8.25;7.05;;;;;;;11.57;100.00;100950.19;4990036;28;20165;-67
2023/08/28 02:32:59;;;;;;;9.65;7.13;;;;;;;11.60;100.00;100950.28;4990563;28;20041;-69
2023/08/28 02:35:25;;;;;;;8.60;7.07;;;;;;;11.58;100.00;100949.38;4989625;28;20033;-69
2023/08/28 02:37:50;;;;;;;8.73;7.00;;;;;;;11.56;100.00;100948.44;4990356;28;20050;-68
2023/08/28 02:40:15;;;;;;;8.75;7.57;;;;;;;11.55;100.00;100951.88;4989512;28;20113;-69
2023/08/28 02:42:41;;;;;;;9.48;8.07;;;;;;;11.55;100.00;100951.88;4990512;28;20386;-69
2023/08/28 02:45:07;;;;;;;9.25;8.40;;;;;;;11.51;100.00;100943.97;4989551;28;20018;-68
2023/08/28 02:47:32;;;;;;;8.73;7.28;;;;;;;11.55;100.00;100954.47;4979098;28;20106;-66
2023/08/28 02:49:57;;;;;;;8.85;8.05;;;;;;;11.52;100.00;100956.13;4988022;28;20034;-67
2023/08/28 02:52:22;;;;;;;9.40;8.20;;;;;;;11.51;100.00;100951.75;4979605;28;20038;-69
2023/08/28 02:54:48;;;;;;;9.55;8.55;;;;;;;11.53;100.00;100952.69;4970819;28;20039;-68
2023/08/28 02:57:13;;;;;;;10.50;9.40;;;;;;;11.51;100.00;100953.50;4970770;28;20071;-69
2023/08/28 02:59:38;;;;;;;9.95;8.90;;;;;;;11.50;100.00;100955.19;4969815;28;20019;-68
2023/08/28 03:02:04;;;;;;;9.20;8.30;;;;;;;11.49;100.00;100952.56;4981766;28;20034;-69
2023/08/28 03:04:29;;;;;;;10.32;8.30;;;;;;;11.47;100.00;100951.63;4976827;28;20070;-65
2023/08/28 03:06:54;;;;;;;9.57;8.57;;;;;;;11.45;100.00;100951.59;4971530;28;20086;-69
2023/08/28 03:09:19;;;;;;;9.43;8.52;;;;;;;11.43;100.00;100958.44;4970625;28;20475;-69
2023/08/28 03:11:45;;;;;;;11.10;9.05;;;;;;;11.43;100.00;100963.63;4970123;28;20022;-70
2023/08/28 03:14:11;;;;;;;9.88;8.93;;;;;;;11.42;100.00;100972.28;4982881;28;20584;-68
2023/08/28 03:16:36;;;;;;;10.10;8.75;;;;;;;11.39;100.00;100972.16;4971021;28;20030;-70
2023/08/28 03:19:01;;;;;;;10.40;8.63;;;;;;;11.39;100.00;100973.03;4970970;28;20125;-69
2023/08/28 03:21:26;;;;;;;10.07;9.07;;;;;;;11.38;100.00;100971.28;4970913;28;20015;-69
2023/08/28 03:23:52;;;;;;;9.85;8.80;;;;;;;11.37;100.00;100972.09;4982162;28;20061;-65
2023/08/28 03:26:18;;;;;;;9.15;8.25;;;;;;;11.36;100.00;100972.06;4970891;28;20029;-69
2023/08/28 03:28:43;;;;;;;9.13;8.32;;;;;;;11.34;100.00;100973.72;4970489;28;20178;-69
2023/08/28 03:31:09;;;;;;;8.65;7.85;;;;;;;11.32;100.00;100976.28;4970283;28;20042;-69
2023/08/28 03:33:37;;;;;;;8.75;7.95;;;;;;;11.32;100.00;100972.78;4985258;28;20030;-68
2023/08/28 03:36:05;;;;;;;9.52;8.35;;;;;;;11.27;100.00;100978.75;4989205;28;20022;-69
2023/08/28 03:38:31;;;;;;;8.98;8.05;;;;;;;11.25;100.00;100988.19;4989126;28;20037;-69
2023/08/28 03:40:56;;;;;;;8.95;7.78;;;;;;;11.22;100.00;100985.50;4979655;28;20027;-68
2023/08/28 03:43:21;;;;;;;9.85;9.02;;;;;;;11.19;100.00;100995.75;4986226;28;20085;-68
2023/08/28 03:45:47;;;;;;;8.90;8.10;;;;;;;11.17;100.00;100995.72;4989116;28;20018;-68
2023/08/28 03:48:12;;;;;;;9.23;8.23;;;;;;;11.16;100.00;101000.84;4987576;28;20089;-68
2023/08/28 03:50:37;;;;;;;10.00;8.98;;;;;;;11.17;100.00;100997.44;4989402;28;20080;-70
2023/08/28 03:53:03;;;;;;;10.40;9.50;;;;;;;11.16;100.00;100996.56;4988324;28;20025;-69
2023/08/28 03:55:29;;;;;;;10.38;9.48;;;;;;;11.19;100.00;100993.16;4989008;28;20034;-67
2023/08/28 03:57:55;;;;;;;12.55;9.70;;;;;;;11.17;100.00;101002.63;4971731;28;20023;-66
2023/08/28 04:00:20;;;;;;;10.40;9.48;;;;;;;11.19;100.00;101006.13;4980409;28;20022;-68
2023/08/28 04:02:47;;;;;;;10.20;9.20;;;;;;;11.21;100.00;101011.34;4988623;28;20812;-68
2023/08/28 04:05:13;;;;;;;10.20;9.25;;;;;;;11.19;100.00;101019.09;4977691;28;20031;-68
2023/08/28 04:07:40;;;;;;;10.68;9.57;;;;;;;11.19;100.00;101015.66;4969385;28;20034;-69
2023/08/28 04:10:06;;;;;;;12.18;11.00;;;;;;;11.17;100.00;101015.59;4970318;28;20352;-70
2023/08/28 04:12:32;;;;;;;12.38;11.27;;;;;;;11.20;100.00;101018.28;4969172;28;20153;-69
2023/08/28 04:14:57;;;;;;;13.57;12.18;;;;;;;11.23;100.00;101026.16;4969226;28;20145;-68
2023/08/28 04:17:23;;;;;;;12.82;11.57;;;;;;;11.26;100.00;101022.78;4970103;28;20529;-69
2023/08/28 04:19:51;;;;;;;12.60;11.57;;;;;;;11.26;100.00;101015.88;4970098;28;20031;-65
2023/08/28 04:22:16;;;;;;;13.52;12.23;;;;;;;11.27;100.00;101025.44;4969803;28;20050;-69
2023/08/28 04:24:44;;;;;;;13.38;12.15;;;;;;;11.28;100.00;101023.69;4969430;28;20078;-64
2023/08/28 04:27:09;;;;;;;15.18;13.65;;;;;;;11.29;100.00;101018.59;4970273;28;20049;-69
2023/08/28 04:29:35;;;;;;;13.75;12.45;;;;;;;11.29;100.00;101015.09;4970033;28;20026;-69
2023/08/28 04:32:00;;;;;;;14.68;13.35;;;;;;;11.29;100.00;101018.59;4982428;28;20027;-68
2023/08/28 04:34:25;;;;;;;15.10;12.13;;;;;;;11.32;100.00;101022.09;4978034;28;20149;-69
2023/08/28 04:36:51;;;;;;;12.73;11.57;;;;;;;11.33;100.00;101016.06;4986342;28;20077;-70
2023/08/28 04:39:16;;;;;;;14.50;13.10;;;;;;;11.37;100.00;101020.53;4986622;28;20030;-65
2023/08/28 04:41:41;;;;;;;12.30;11.23;;;;;;;11.38;100.00;101011.91;4985548;28;20545;-69
2023/08/28 04:44:06;;;;;;;13.50;12.32;;;;;;;11.40;100.00;101016.31;4986293;28;20307;-67
2023/08/28 04:46:32;;;;;;;12.85;11.60;;;;;;;11.43;100.00;101014.63;4986932;28;20026;-68
2023/08/28 04:48:57;;;;;;;13.90;12.60;;;;;;;11.44;100.00;101013.81;4988537;28;20022;-69
2023/08/28 04:51:22;;;;;;;13.50;12.30;;;;;;;11.47;100.00;101017.41;4988164;28;20018;-69
2023/08/28 04:53:48;;;;;;;12.88;11.65;;;;;;;11.49;100.00;101010.53;4988359;28;20390;-70
2023/08/28 04:56:13;;;;;;;13.35;11.95;;;;;;;11.51;100.00;101008.84;4987577;28;20482;-67
2023/08/28 04:58:38;;;;;;;13.60;12.02;;;;;;;11.55;100.00;101003.78;4987862;28;20030;-69
2023/08/28 05:01:04;;;;;;;13.60;12.40;;;;;;;11.55;100.00;101001.19;4987155;28;20546;-69
2023/08/28 05:03:29;;;;;;;13.43;12.13;;;;;;;11.56;100.00;101010.72;4988311;28;20482;-69
2023/08/28 05:05:54;;;;;;;14.38;12.20;;;;;;;11.57;100.00;101007.28;4977336;28;20153;-69
2023/08/28 05:08:20;;;;;;;13.35;11.95;;;;;;;11.59;100.00;101001.31;4973087;28;20053;-67
2023/08/28 05:10:45;;;;;;;11.90;10.80;;;;;;;11.60;100.00;100994.41;4988056;28;20522;-69
2023/08/28 05:13:10;;;;;;;13.07;11.73;;;;;;;11.63;100.00;100997.09;4992158;28;20021;-70
2023/08/28 05:15:36;;;;;;;12.70;11.50;;;;;;;11.63;100.00;100990.19;4996742;28;20159;-70
2023/08/28 05:18:01;;;;;;;13.43;11.48;;;;;;;11.65;100.00;100996.31;4987899;28;20014;-68
2023/08/28 05:20:28;;;;;;;13.50;12.07;;;;;;;11.69;100.00;100997.28;4987921;28;20034;-70
2023/08/28 05:22:53;;;;;;;13.10;11.77;;;;;;;11.71;100.00;100992.16;4989177;28;20026;-69
2023/08/28 05:25:19;;;;;;;14.32;12.93;;;;;;;11.73;100.00;100993.94;4991641;28;20126;-70
2023/08/28 05:27:44;;;;;;;13.13;12.02;;;;;;;11.77;100.00;100993.19;4991162;28;20022;-70
2023/08/28 05:30:10;;;;;;;12.80;11.50;;;;;;;11.84;100.00;100999.44;4991001;28;20026;-70
2023/08/28 05:32:35;;;;;;;14.88;13.50;;;;;;;11.91;100.00;100997.91;4996965;28;20038;-69
2023/08/28 05:35:00;;;;;;;14.40;13.05;;;;;;;11.99;100.00;101001.63;4982999;28;20049;-68
2023/08/28 05:37:26;;;;;;;14.27;12.75;;;;;;;12.06;100.00;100996.59;4979116;28;20037;-70
2023/08/28 05:39:52;;;;;;;14.32;12.93;;;;;;;12.13;100.00;100988.16;4982994;28;20445;-69
2023/08/28 05:42:17;;;;;;;14.60;13.27;;;;;;;12.22;100.00;100987.53;4977343;28;20031;-68
2023/08/28 05:44:45;;;;;;;14.10;12.75;;;;;;;12.32;100.00;100986.09;4985227;28;20049;-68
2023/08/28 05:47:10;;;;;;;13.98;12.60;;;;;;;12.42;100.00;100987.19;4985467;28;20116;-67
2023/08/28 05:49:35;;;;;;;15.13;13.55;;;;;;;12.51;100.00;100989.16;4983056;28;20114;-68
2023/08/28 05:52:01;;;;;;;13.15;12.05;;;;;;;12.59;100.00;100993.72;4981537;28;20311;-69
2023/08/28 05:54:26;;;;;;;15.23;12.52;;;;;;;12.67;100.00;100986.13;4984396;28;20532;-66
2023/08/28 05:56:51;;;;;;;13.43;12.15;;;;;;;12.78;100.00;101003.72;4983745;28;20041;-69
2023/08/28 05:59:17;;;;;;;13.75;12.52;;;;;;;12.87;100.00;101003.06;4986772;28;20361;-68
2023/08/28 06:01:42;;;;;;;14.15;12.82;;;;;;;12.95;100.00;101007.63;4984765;28;20040;-68
2023/08/28 06:04:07;;;;;;;14.00;12.73;;;;;;;13.01;100.00;100998.19;4985256;28;20478;-69
2023/08/28 06:06:33;;;;;;;11.95;10.88;;;;;;;13.08;100.00;100997.50;4983822;28;20034;-69
2023/08/28 06:09:03;;;;;;;13.43;12.23;;;;;;;13.17;100.00;101002.94;4977376;28;20382;-69
2023/08/28 06:11:28;;;;;;;12.70;11.60;;;;;;;13.25;100.00;101002.25;4972494;28;20034;-69
2023/08/28 06:13:54;;;;;;;12.75;11.55;;;;;;;13.31;100.00;101005.00;4972172;28;20073;-68
2023/08/28 06:16:19;;;;;;;12.90;11.77;;;;;;;13.39;100.00;100998.25;4974895;28;20034;-70
2023/08/28 06:18:44;;;;;;;11.82;10.63;;;;;;;13.48;100.00;101001.91;4974307;28;20038;-70
2023/08/28 06:21:10;;;;;;;10.70;9.73;;;;;;;13.63;100.00;100991.88;4979401;28;20014;-70
2023/08/28 06:23:35;;;;;;;12.65;11.35;;;;;;;13.81;100.00;101000.94;4985038;28;20293;-70
2023/08/28 06:26:00;;;;;;;11.57;10.52;;;;;;;13.91;100.00;100995.06;4981205;28;20026;-69
2023/08/28 06:28:25;;;;;;;11.55;10.35;;;;;;;13.99;100.00;100999.53;4981369;28;20057;-70
2023/08/28 06:30:51;;;;;;;10.10;9.07;;;;;;;14.11;100.00;100998.91;4976789;28;20033;-71
2023/08/28 06:33:16;;;;;;;10.73;9.73;;;;;;;14.18;100.00;101011.22;4983109;28;20096;-67
2023/08/28 06:35:41;;;;;;;10.15;9.25;;;;;;;14.34;100.00;101008.88;4970042;28;20023;-65
2023/08/28 06:38:07;;;;;;;10.60;9.52;;;;;;;14.43;100.00;101010.81;4983110;28;20023;-68
2023/08/28 06:40:32;;;;;;;9.40;8.60;;;;;;;14.56;100.00;100999.75;4983915;28;20054;-69
2023/08/28 06:42:57;;;;;;;9.23;8.30;;;;;;;14.73;100.00;101009.63;4952322;28;20031;-69
2023/08/28 06:45:22;;;;;;;7.95;7.28;;;;;;;14.92;100.00;101012.56;4990670;28;20054;-70
2023/08/28 06:47:48;;;;;;;8.45;7.60;;;;;;;15.12;100.00;101013.78;4990504;28;20446;-66
2023/08/28 06:50:13;;;;;;;7.05;6.32;;;;;;;15.31;100.00;101018.41;4990334;28;20041;-68
2023/08/28 06:52:38;;;;;;;7.30;6.60;;;;;;;15.52;100.00;101023.06;4989153;28;20504;-67
2023/08/28 06:55:04;;;;;;;8.02;7.28;;;;;;;15.72;100.00;101031.16;4990077;28;20113;-69
2023/08/28 06:57:29;;;;;;;8.38;7.32;;;;;;;15.91;100.00;101036.66;4987638;28;20022;-66
2023/08/28 06:59:55;;;;;;;8.68;6.88;;;;;;;16.12;100.00;101035.19;4986523;28;20085;-70
2023/08/28 07:02:20;;;;;;;8.57;7.78;;;;;;;16.35;100.00;101036.31;4985839;28;20405;-70
2023/08/28 07:04:46;;;;;;;8.23;7.43;;;;;;;16.58;100.00;101038.28;4984560;28;20026;-71
2023/08/28 07:07:16;;;;;;;7.25;6.65;;;;;;;16.71;100.00;101041.91;4975901;28;20027;-69
2023/08/28 07:09:41;;;;;;;7.50;6.80;;;;;;;16.74;100.00;101042.81;4971763;28;20113;-69
2023/08/28 07:12:06;;;;;;;8.15;6.63;;;;;;;16.74;100.00;101049.78;4968801;28;20110;-69
2023/08/28 07:14:32;;;;;;;6.95;6.35;;;;;;;16.71;100.00;101048.03;4970908;28;20023;-69
2023/08/28 07:16:57;;;;;;;6.80;6.07;;;;;;;16.63;100.00;101045.34;4970892;28;20106;-69
2023/08/28 07:19:23;;;;;;;8.63;7.22;;;;;;;16.59;100.00;101043.53;4970774;28;20457;-70
2023/08/28 07:21:48;;;;;;;7.82;7.13;;;;;;;16.62;100.00;101040.94;4970859;28;20038;-69
2023/08/28 07:24:13;;;;;;;9.30;7.95;;;;;;;16.78;100.00;101043.72;4970485;28;20046;-69
2023/08/28 07:26:38;;;;;;;7.50;6.90;;;;;;;17.11;100.00;101046.63;4961614;28;20548;-69
2023/08/28 07:29:04;;;;;;;7.72;7.10;;;;;;;17.36;100.00;101045.09;4974761;28;20383;-69
2023/08/28 07:31:29;;;;;;;7.30;6.60;;;;;;;17.58;100.00;101044.34;4981768;28;20097;-68
2023/08/28 07:33:55;;;;;;;7.43;6.75;;;;;;;17.73;100.00;101039.22;4971319;28;20023;-68
2023/08/28 07:36:23;;;;;;;8.70;6.55;;;;;;;17.93;100.00;101041.06;4970179;28;20395;-68
2023/08/28 07:38:49;;;;;;;7.32;6.63;;;;;;;18.33;100.00;101039.50;4970400;28;20050;-68
2023/08/28 07:41:16;;;;;;;6.60;6.00;;;;;;;18.77;100.00;101036.94;4969821;28;20026;-69
2023/08/28 07:43:42;;;;;;;7.38;6.70;;;;;;;19.01;100.00;101032.56;4970185;28;20466;-69
2023/08/28 07:46:08;;;;;;;7.13;6.53;;;;;;;19.38;100.00;101043.06;4969460;28;20497;-69
2023/08/28 07:48:33;;;;;;;7.35;5.90;;;;;;;19.55;100.00;101040.41;4969388;28;20015;-69
2023/08/28 07:50:58;;;;;;;7.10;5.88;;;;;;;19.82;100.00;101042.09;4970217;28;20448;-69
2023/08/28 07:53:23;;;;;;;6.97;6.28;;;;;;;19.98;100.00;101046.41;4969703;28;20022;-68
2023/08/28 07:55:49;;;;;;;6.82;5.68;;;;;;;20.08;100.00;101038.50;4982611;28;20022;-68
2023/08/28 07:58:14;;;;;;;5.80;5.20;;;;;;;20.07;100.00;101042.91;4983032;28;20382;-69
2023/08/28 08:00:40;;;;;;;7.25;5.97;;;;;;;19.85;100.00;101045.59;4969490;28;20038;-69
2023/08/28 08:03:05;;;;;;;6.05;5.28;;;;;;;19.75;100.00;101039.47;4989373;28;20494;-67
2023/08/28 08:05:31;;;;;;;5.88;5.35;;;;;;;19.95;100.00;101048.19;4981346;28;20054;-68
2023/08/28 08:07:57;;;;;;;7.22;6.10;;;;;;;19.96;100.00;101042.91;4971801;28;20455;-68
2023/08/28 08:10:22;;;;;;;6.47;5.55;;;;;;;19.98;100.00;101043.78;4999290;28;20046;-69
2023/08/28 08:12:48;;;;;;;5.78;5.28;;;;;;;20.05;100.00;101047.28;4987409;28;20366;-68
2023/08/28 08:15:13;;;;;;;6.60;5.95;;;;;;;20.00;100.00;101043.78;4994726;28;20145;-67
2023/08/28 08:17:38;;;;;;;5.90;5.40;;;;;;;20.02;100.00;101055.16;4986724;28;20057;-68
2023/08/28 08:20:09;;;;;;;6.88;5.32;;;;;;;19.95;100.00;101048.19;4974160;28;20050;-68
2023/08/28 08:22:35;;;;;;;7.15;5.78;;;;;;;19.86;100.00;101049.94;4986900;28;20494;-66
2023/08/28 08:25:01;;;;;;;7.32;5.90;;;;;;;19.61;100.00;101050.03;4987623;28;20121;-68
2023/08/28 08:27:27;;;;;;;6.78;5.45;;;;;;;19.49;100.00;101050.06;4987030;28;20034;-69
2023/08/28 08:29:53;;;;;;;6.47;5.40;;;;;;;19.45;100.00;101049.19;4987941;28;20151;-67
2023/08/28 08:32:18;;;;;;;5.72;5.20;;;;;;;19.36;100.00;101050.06;4974296;28;20562;-68
2023/08/28 08:34:44;;;;;;;4.90;4.43;;;;;;;19.29;100.00;101048.34;4987938;28;20500;-69
2023/08/28 08:37:09;;;;;;;7.20;5.38;;;;;;;19.18;100.00;101051.84;4982206;28;20026;-67
2023/08/28 08:39:34;;;;;;;5.78;5.28;;;;;;;19.14;100.00;101055.34;4972260;28;20022;-69
2023/08/28 08:42:00;;;;;;;6.43;5.53;;;;;;;18.76;100.00;101059.69;4984939;28;20426;-68
2023/08/28 08:44:25;;;;;;;6.38;5.78;;;;;;;18.62;100.00;101057.03;4986538;28;20034;-68
2023/08/28 08:46:52;;;;;;;6.13;5.53;;;;;;;18.45;100.00;101062.25;4985271;28;20030;-68
2023/08/28 08:49:20;;;;;;;6.10;5.60;;;;;;;18.50;100.00;101057.00;4987113;28;20052;-69
2023/08/28 08:51:47;;;;;;;6.72;5.13;;;;;;;18.52;100.00;101058.75;4985176;28;20030;-67
2023/08/28 08:54:19;;;;;;;5.40;5.00;;;;;;;18.57;100.00;101058.75;4977332;28;20022;-66
2023/08/28 08:56:50;;;;;;;7.10;6.53;;;;;;;18.55;100.00;101061.38;4971673;28;20038;-67
2023/08/28 08:59:15;;;;;;;;;;;;;;;18.43;100.00;101057.00;4980075;28;20037;-68
2023/08/28 09:01:41;;;;;;;7.43;6.75;;;;;;;18.44;100.00;101056.13;4975695;28;19910;-68
2023/08/28 09:04:08;;;;;;;8.07;7.40;;;;;;;18.48;100.00;101054.38;4979433;28;20034;-69
2023/08/28 09:06:36;;;;;;;7.63;7.03;;;;;;;18.49;100.00;101056.16;4985660;28;20031;-68
2023/08/28 09:09:05;;;;;;;7.78;7.18;;;;;;;18.53;100.00;101057.88;4990770;28;20156;-69
2023/08/28 09:11:31;;;;;;;7.95;7.25;;;;;;;18.63;100.00;101055.28;4988918;28;20018;-68
2023/08/28 09:13:56;;;;;;;6.47;5.88;;;;;;;18.80;100.00;101050.03;4999716;28;20462;-69
2023/08/28 09:16:22;;;;;;;7.13;6.10;;;;;;;18.92;100.00;101049.19;4992304;28;20025;-68
2023/08/28 09:18:48;;;;;;;6.15;5.65;;;;;;;19.15;100.00;101050.97;4988066;28;20014;-69
2023/08/28 09:21:14;;;;;;;5.68;5.18;;;;;;;19.43;100.00;101049.19;4983356;28;20034;-69
2023/08/28 09:23:44;;;;;;;6.85;6.25;;;;;;;19.77;100.00;101045.59;4987597;28;20045;-68
2023/08/28 09:26:21;;;;;;;6.07;5.43;;;;;;;20.01;100.00;101048.16;4984418;28;20069;-68
2023/08/28 09:29:02;;;;;;;7.38;6.82;;;;;;;20.05;100.00;101049.94;4987977;28;20026;-68
2023/08/28 09:31:29;;;;;;;6.03;5.47;;;;;;;20.01;100.00;101048.16;4977825;28;20023;-68
2023/08/28 09:33:54;;;;;;;5.53;5.07;;;;;;;19.87;100.00;101050.84;4976600;28;20038;-69
2023/08/28 09:36:19;;;;;;;5.15;4.75;;;;;;;19.70;100.00;101048.28;4991228;28;20501;-69
2023/08/28 09:38:45;;;;;;;4.85;4.55;;;;;;;19.48;100.00;101050.94;4974679;28;20026;-69
2023/08/28 09:41:10;;;;;;;4.43;4.03;;;;;;;19.28;100.00;101047.47;4977587;28;20022;-69
2023/08/28 09:43:36;;;;;;;4.50;4.10;;;;;;;19.23;100.00;101056.22;4981405;28;20379;-69
2023/08/28 09:46:04;;;;;;;5.25;3.65;;;;;;;19.08;100.00;101050.06;4982719;28;20109;-68
2023/08/28 09:48:32;;;;;;;3.33;3.03;;;;;;;19.02;100.00;101055.31;4980292;28;20035;-69
2023/08/28 09:51:01;;;;;;;2.67;2.47;;;;;;;19.00;100.00;101063.19;4975365;28;20053;-69
2023/08/28 09:53:26;;;;;;;3.45;3.15;;;;;;;19.01;100.00;101061.44;4975780;28;20050;-69
2023/08/28 09:55:53;;;;;;;3.75;3.10;;;;;;;18.92;100.00;101064.94;4976095;28;20431;-69
2023/08/28 09:58:21;;;;;;;4.38;3.53;;;;;;;18.78;100.00;101070.19;4987950;28;20105;-69
2023/08/28 10:00:48;;;;;;;3.55;3.25;;;;;;;18.76;100.00;101061.44;4989308;28;20588;-68
2023/08/28 10:03:14;;;;;;;4.10;3.70;;;;;;;18.77;100.00;101065.78;4988384;28;20030;-68
2023/08/28 10:05:44;;;;;;;5.03;3.58;;;;;;;18.80;100.00;101057.91;4977901;28;20391;-67
2023/08/28 10:08:12;;;;;;;4.55;4.15;;;;;;;18.82;100.00;101058.81;4986506;28;20030;-69
2023/08/28 10:10:45;;;;;;;5.03;4.20;;;;;;;18.84;100.00;101049.19;4989038;28;20253;-68
2023/08/28 10:13:13;;;;;;;3.53;3.13;;;;;;;18.84;100.00;101062.31;4989744;28;20360;-68
2023/08/28 10:15:52;;;;;;;4.57;3.47;;;;;;;18.87;100.00;101059.69;4989813;28;20027;-69
2023/08/28 10:18:24;;;;;;;3.83;3.20;;;;;;;18.90;100.00;101051.81;4989356;28;20090;-68
2023/08/28 10:20:50;;;;;;;3.10;2.80;;;;;;;18.93;100.00;101050.94;4985757;28;20041;-69
2023/08/28 10:23:17;;;;;;;5.85;3.38;;;;;;;18.95;100.00;101050.06;4973729;28;20057;-68
2023/08/28 10:25:43;;;;;;;3.92;3.63;;;;;;;18.96;100.00;101057.06;4977236;28;20121;-69
2023/08/28 10:28:09;;;;;;;3.83;3.35;;;;;;;18.98;100.00;101058.84;4972775;28;20101;-68
2023/08/28 10:30:35;;;;;;;3.25;2.95;;;;;;;19.02;100.00;101057.94;4973649;28;20030;-70
2023/08/28 10:33:01;;;;;;;3.53;3.22;;;;;;;19.08;100.00;101058.84;4979937;28;20036;-70
2023/08/28 10:35:28;;;;;;;2.83;2.63;;;;;;;19.09;100.00;101064.94;4971410;28;20026;-71
2023/08/28 10:37:54;;;;;;;2.92;2.67;;;;;;;19.08;100.00;101053.59;4988697;28;20030;-70
2023/08/28 10:40:20;;;;;;;2.70;2.50;;;;;;;19.16;100.00;101057.97;4988366;28;20536;-70
2023/08/28 10:42:47;;;;;;;3.38;3.17;;;;;;;19.18;100.00;101062.34;4988436;28;20030;-70
2023/08/28 10:45:13;;;;;;;3.88;3.58;;;;;;;19.11;100.00;101057.06;4987627;28;20030;-70
2023/08/28 10:47:38;;;;;;;2.15;1.20;;;;;;;19.11;100.00;101057.06;4987755;28;20394;-70
2023/08/28 10:50:05;;;;;;;3.03;0.90;;;;;;;18.98;96.44;101050.97;4987302;28;20422;-71
2023/08/28 10:52:31;;;;;;;1.88;1.00;;;;;;;19.07;100.00;101053.56;4987725;28;20034;-70
2023/08/28 10:54:57;;;;;;;2.58;2.17;;;;;;;19.23;100.00;101053.59;4987578;28;20100;-71
2023/08/28 10:57:25;;;;;;;2.17;2.08;;;;;;;19.44;100.00;101057.97;4989037;28;20023;-70
2023/08/28 10:59:51;;;;;;;2.47;2.28;;;;;;;19.61;100.00;101057.06;4988058;28;20462;-71
2023/08/28 11:02:18;;;;;;;1.50;1.10;;;;;;;19.74;100.00;101056.13;4989602;28;20029;-71
2023/08/28 11:04:43;;;;;;;1.45;0.60;;;;;;;19.79;100.00;101054.34;4987165;28;20025;-69
2023/08/28 11:07:20;;;;;;;1.00;0.90;;;;;;;19.79;95.54;101053.47;4970178;28;20038;-71
2023/08/28 11:09:46;;;;;;;1.10;1.00;;;;;;;19.85;96.25;101053.47;4970503;28;20033;-70